Flight Track Log - Related Links

Times and Time Zones

All times are in EDT time to prevent confusion due to time zone crossing. See the TAM3447 flight status page for this flight to view local times or setup timezone preferences in your user account.

Time Position Orientation Groundspeed Altitude Reporting Facility
EDT Latitude Longitude Course Direction KTS MPH feet Rate Location/Type
Sun 08:36:04 PM -1.3550 -48.4420 59° Northeast 169 194 1,800  Level FlightAware ADS-B
Sun 08:36:32 PM -1.3460 -48.4260 61° Northeast 169 194 1,800 1,588 Level FlightAware ADS-B
Sun 08:36:38 PM -1.3800 -48.4170 165° South 226 260 2,700 5,333 Climbing FlightAware ADS-B
Sun 08:36:50 PM -1.3950 -48.4160 176° South 273 314 3,400 3,333 Climbing FlightAware ADS-B
Sun 08:37:14 PM -1.4220 -48.4180 184° South 278 320 4,700 3,875 Climbing FlightAware ADS-B
Sun 08:37:38 PM -1.4550 -48.4210 185° South 272 313 6,500 2,160 Climbing FlightAware ADS-B
Sun 08:38:04 PM -1.4830 -48.4240 186° South 272 313 6,500 2,286 Level FlightAware ADS-B
Sun 08:38:20 PM -1.4550 -48.4210 North 272 313 8,100 2,182 Climbing FlightAware ADS-B
Sun 08:38:48 PM -1.4850 -48.4240 186° South 272 313 8,100 2,083 Level FlightAware ADS-B
Sun 08:39:32 PM -1.4860 -48.4240 180° South 278 320 10,600 1,875 Climbing FlightAware ADS-B
Sun 08:40:08 PM -1.5250 -48.4270 184° South 278 320 10,600 2,132 Level FlightAware ADS-B
Sun 08:40:48 PM -1.4880 -48.4230 North 300 345 13,300 2,132 Climbing FlightAware ADS-B
Sun 08:41:24 PM -1.5310 -48.4260 184° South 300 345 13,300  Level FlightAware ADS-B
Sun 08:42:00 PM -1.5730 -48.4290 184° South 300 345 13,300 455 Level FlightAware ADS-B
Sun 08:44:00 PM -1.7600 -48.4224 178° South  Level Estimated
Sun 08:45:00 PM -1.8535 -48.4191 178° South  Level Estimated
Sun 08:46:00 PM -1.9470 -48.4159 178° South  Level Estimated
Sun 08:47:00 PM -2.0405 -48.4126 178° South  Level Estimated
Sun 08:48:00 PM -2.1340 -48.4093 178° South  Level Estimated
Sun 08:49:00 PM -2.2275 -48.4060 178° South  Level Estimated
Sun 08:50:00 PM -2.3210 -48.4027 178° South  Level Estimated
Sun 08:51:00 PM -2.4145 -48.3994 178° South  Level Estimated
Sun 08:52:00 PM -2.5080 -48.3961 178° South  Level Estimated
Sun 08:53:00 PM -2.6015 -48.3928 178° South  Level Estimated
Sun 08:54:00 PM -2.6950 -48.3895 178° South  Level Estimated
Sun 08:55:00 PM -2.7885 -48.3862 178° South  Level Estimated
Sun 08:56:00 PM -2.8820 -48.3829 178° South  Level Estimated
Sun 08:57:00 PM -2.9755 -48.3797 178° South  Level Estimated
Sun 08:58:00 PM -3.0690 -48.3764 178° South  Level Estimated
Sun 08:59:00 PM -3.1625 -48.3731 178° South  Level Estimated
Sun 09:00:00 PM -3.2560 -48.3698 178° South  Level Estimated
Sun 09:01:00 PM -3.3495 -48.3665 178° South  Level Estimated
Sun 09:02:00 PM -3.4430 -48.3632 178° South  Level Estimated
Sun 09:03:00 PM -3.5365 -48.3599 178° South  Level Estimated
Sun 09:04:00 PM -3.6300 -48.3566 178° South  Level Estimated
Sun 09:05:00 PM -3.7235 -48.3533 178° South  Level Estimated
Sun 09:06:00 PM -3.8170 -48.3500 178° South  Level Estimated
Sun 09:07:00 PM -3.9105 -48.3467 178° South  Level Estimated
Sun 09:08:00 PM -4.0040 -48.3434 178° South  Level Estimated
Sun 09:09:00 PM -4.0975 -48.3401 178° South  Level Estimated
Sun 09:10:00 PM -4.1910 -48.3368 178° South  Level Estimated
Sun 09:11:00 PM -4.2845 -48.3335 178° South  Level Estimated
Sun 09:12:00 PM -4.3780 -48.3302 178° South  Level Estimated
Sun 09:13:00 PM -4.4715 -48.3269 178° South  Level Estimated
Sun 09:14:00 PM -4.5650 -48.3236 178° South  Level Estimated
Sun 09:15:00 PM -4.6585 -48.3203 178° South  Level Estimated
Sun 09:16:00 PM -4.7520 -48.3170 178° South  Level Estimated
Sun 09:17:00 PM -4.8455 -48.3137 178° South  Level Estimated
Sun 09:18:00 PM -4.9390 -48.3104 178° South  Level Estimated
Sun 09:19:00 PM -5.0350 -48.3070 178° South  Level Estimated
Sun 09:20:00 PM -5.1309 -48.3036 178° South  Level Estimated
Sun 09:21:00 PM -5.2269 -48.3002 178° South  Level Estimated
Sun 09:22:00 PM -5.3229 -48.2968 178° South  Level Estimated
Sun 09:23:00 PM -5.4188 -48.2934 178° South  Level Estimated
Sun 09:24:00 PM -5.5148 -48.2900 178° South  Level Estimated
Sun 09:25:00 PM -5.6108 -48.2866 178° South  Level Estimated
Sun 09:26:00 PM -5.7068 -48.2832 178° South  Level Estimated
Sun 09:27:00 PM -5.8027 -48.2798 178° South  Level Estimated
Sun 09:28:00 PM -5.8987 -48.2764 178° South  Level Estimated
Sun 09:29:00 PM -5.9947 -48.2730 178° South  Level Estimated
Sun 09:30:00 PM -6.0906 -48.2696 178° South  Level Estimated
Sun 09:31:00 PM -6.1866 -48.2662 178° South  Level Estimated
Sun 09:32:00 PM -6.2826 -48.2628 178° South  Level Estimated
Sun 09:33:00 PM -6.3786 -48.2594 178° South  Level Estimated
Sun 09:34:00 PM -6.4745 -48.2560 178° South  Level Estimated
Sun 09:35:00 PM -6.5705 -48.2525 178° South  Level Estimated
Sun 09:36:00 PM -6.6665 -48.2491 178° South  Level Estimated
Sun 09:37:00 PM -6.7624 -48.2457 178° South  Level Estimated
Sun 09:37:56 PM -8.4590 -48.4640 178° South 425 489 39,000  Level FlightAware ADS-B
Sun 09:38:00 PM -6.8584 -48.2423 178° South  Level Estimated
Sun 09:38:27 PM -8.5160 -48.4610 177° South 425 489 39,000  Level FlightAware ADS-B
Sun 09:39:24 PM -8.6140 -48.4550 177° South 425 489 39,000  Level FlightAware ADS-B
Sun 09:40:01 PM -8.6940 -48.4500 176° South 425 489 39,000  Level FlightAware ADS-B
Sun 09:40:35 PM -8.7670 -48.4460 177° South 425 489 39,000  Level FlightAware ADS-B
Sun 09:41:11 PM -8.8430 -48.4420 177° South 423 487 39,000  Level FlightAware ADS-B
Sun 09:42:03 PM -8.9440 -48.4360 177° South 423 487 39,000  Level FlightAware ADS-B
Sun 09:42:55 PM -9.0470 -48.4300 177° South 422 486 39,000  Level FlightAware ADS-B
Sun 09:43:26 PM -9.1000 -48.4270 177° South 422 486 39,000  Level FlightAware ADS-B
Sun 09:43:57 PM -9.1730 -48.4230 177° South 422 486 39,000  Level FlightAware ADS-B
Sun 09:44:46 PM -9.2610 -48.4180 177° South 421 484 39,000  Level FlightAware ADS-B
Sun 09:45:19 PM -9.3250 -48.4140 176° South 421 484 39,000  Level FlightAware ADS-B
Sun 09:45:56 PM -9.3950 -48.4100 177° South 420 483 39,000  Level FlightAware ADS-B
Sun 09:46:30 PM -9.4700 -48.4060 177° South 420 483 39,000  Level FlightAware ADS-B
Sun 09:47:01 PM -9.5310 -48.4020 176° South 421 484 39,000  Level FlightAware ADS-B
Sun 09:47:48 PM -9.6170 -48.3970 177° South 420 483 39,000  Level FlightAware ADS-B
Sun 09:48:14 PM -9.6680 -48.3940 177° South 420 483 39,000  Level FlightAware ADS-B
Sun 09:48:54 PM -9.7440 -48.3900 177° South 420 483 39,000  Level FlightAware ADS-B
Sun 09:49:58 PM -9.8720 -48.3830 177° South 419 482 39,000  Level FlightAware ADS-B
Sun 09:50:29 PM -9.9350 -48.3790 176° South 419 482 39,000  Level FlightAware ADS-B
Sun 09:51:08 PM -10.0030 -48.3740 176° South 418 481 39,000  Level FlightAware ADS-B
Sun 09:51:48 PM -10.0720 -48.3710 178° South 418 481 39,000  Level FlightAware ADS-B
Sun 09:52:24 PM -10.1310 -48.3670 176° South 418 481 39,000  Level FlightAware ADS-B
Sun 09:53:10 PM -10.1040 -48.3730 348° North 419 482 39,000  Level FlightAware ADS-B
Sun 09:53:46 PM -10.0840 -48.3780 346° North 420 483 39,000  Level FlightAware ADS-B
Sun 09:55:22 PM -10.0860 -48.3780 180° South 421 484 39,000  Level FlightAware ADS-B
Sun 09:56:04 PM -10.5740 -48.4150 184° South 418 481 39,000  Level FlightAware ADS-B
Sun 09:56:43 PM -10.6550 -48.4210 184° South 418 481 39,000  Level FlightAware ADS-B
Sun 09:57:22 PM -10.7390 -48.4270 184° South 419 482 39,000  Level FlightAware ADS-B
Sun 09:57:53 PM -10.7980 -48.4320 185° South 420 483 39,000  Level FlightAware ADS-B
Sun 09:58:29 PM -10.7980 -48.4320 185° South 422 486 39,000  Level FlightAware ADS-B
Sun 09:59:03 PM -10.9230 -48.4410 184° South 423 487 39,000  Level FlightAware ADS-B
Sun 09:59:42 PM -11.0080 -48.4480 185° South 423 487 39,000  Level FlightAware ADS-B
Sun 10:00:18 PM -11.0580 -48.4510 183° South 422 486 39,000  Level FlightAware ADS-B
Sun 10:00:51 PM -11.1450 -48.4580 185° South 422 486 39,000  Level FlightAware ADS-B
Sun 10:01:31 PM -11.2170 -48.4630 184° South 422 486 39,000  Level FlightAware ADS-B
Sun 10:02:05 PM -11.2860 -48.4680 184° South 422 486 39,000  Level FlightAware ADS-B
Sun 10:02:43 PM -11.3640 -48.4740 184° South 423 487 39,000  Level FlightAware ADS-B
Sun 10:03:25 PM -11.4460 -48.4800 184° South 423 487 39,000  Level FlightAware ADS-B
Sun 10:04:00 PM -11.5080 -48.4850 185° South 423 487 39,000  Level FlightAware ADS-B
Sun 10:04:38 PM -11.5830 -48.4910 184° South 424 488 39,000  Level FlightAware ADS-B
Sun 10:05:17 PM -11.6520 -48.4960 184° South 426 490 39,000  Level FlightAware ADS-B
Sun 10:05:49 PM -11.7200 -48.5010 184° South 427 491 39,000  Level FlightAware ADS-B
Sun 10:06:31 PM -11.7930 -48.5060 184° South 427 491 39,000  Level FlightAware ADS-B
Sun 10:07:07 PM -11.8540 -48.5110 185° South 427 491 39,000  Level FlightAware ADS-B
Sun 10:07:43 PM -11.9140 -48.5150 184° South 427 491 39,000  Level FlightAware ADS-B
Sun 10:07:58 PM -11.7500 -48.5030 North 39,000  Level FlightAware ADS-B
Sun 10:10:00 PM -11.9434 -48.4757 172° South  Level Estimated
Sun 10:11:00 PM -12.0386 -48.4622 172° South  Level Estimated
Sun 10:12:00 PM -12.1337 -48.4488 172° South  Level Estimated
Sun 10:13:00 PM -12.2288 -48.4353 172° South  Level Estimated
Sun 10:14:00 PM -12.3239 -48.4218 172° South  Level Estimated
Sun 10:15:00 PM -12.4191 -48.4083 172° South  Level Estimated
Sun 10:16:00 PM -12.5142 -48.3948 172° South  Level Estimated
Sun 10:17:00 PM -12.6093 -48.3813 172° South  Level Estimated
Sun 10:18:00 PM -12.7044 -48.3678 172° South  Level Estimated
Sun 10:19:00 PM -12.7996 -48.3543 172° South  Level Estimated
Sun 10:20:00 PM -12.8947 -48.3407 172° South  Level Estimated
Sun 10:21:00 PM -12.9898 -48.3272 172° South  Level Estimated
Sun 10:22:00 PM -13.0849 -48.3136 172° South  Level Estimated
Sun 10:23:00 PM -13.1800 -48.3000 172° South  Level Estimated
Sun 10:24:00 PM -13.2752 -48.2865 172° South  Level Estimated
Sun 10:25:00 PM -13.3703 -48.2729 172° South  Level Estimated
Sun 10:26:00 PM -13.4654 -48.2593 172° South  Level Estimated
Sun 10:26:45 PM -14.2080 -48.6900 172° South 426 490 39,000  Level FlightAware ADS-B
Sun 10:27:23 PM -14.2810 -48.6960 185° South 427 491 39,000  Level FlightAware ADS-B
Sun 10:27:53 PM -14.3350 -48.7000 184° South 427 491 39,000  Level FlightAware ADS-B
Sun 10:28:33 PM -14.4200 -48.7070 185° South 427 491 39,000  Level FlightAware ADS-B
Sun 10:29:08 PM -14.4890 -48.7120 184° South 428 493 39,000  Level FlightAware ADS-B
Sun 10:29:43 PM -14.5600 -48.7180 185° South 427 491 39,000  Level FlightAware ADS-B
Sun 10:30:23 PM -14.6390 -48.7240 184° South 427 491 39,000  Level FlightAware ADS-B
Sun 10:30:58 PM -14.7000 -48.7280 184° South 425 489 39,000  Level FlightAware ADS-B
Sun 10:31:30 PM -14.7720 -48.7340 185° South 414 476 39,000  Level FlightAware ADS-B
Sun 10:32:17 PM -14.8570 -48.7400 184° South 414 476 39,000  Level FlightAware ADS-B
Sun 10:32:50 PM -14.9240 -48.7460 185° South 415 478 39,000 -88 Level FlightAware ADS-B
Sun 10:33:25 PM -14.9920 -48.7510 184° South 416 479 38,900 -686 Descending FlightAware ADS-B
Sun 10:34:00 PM -15.0560 -48.7560 184° South 404 465 38,200 -2,143 Descending FlightAware ADS-B
Sun 10:34:35 PM -15.1240 -48.7610 184° South 411 473 36,400 -3,086 Descending FlightAware ADS-B
Sun 10:35:10 PM -15.1910 -48.7660 184° South 422 486 34,600 -3,231 Descending FlightAware ADS-B
Sun 10:35:40 PM -15.2480 -48.7710 185° South 428 493 32,900 -3,480 Descending FlightAware ADS-B
Sun 10:36:00 PM -15.2880 -48.7670 174° South 431 496 31,700 -3,771 Descending FlightAware ADS-B
Sun 10:36:15 PM -15.3190 -48.7570 163° South 435 501 30,700 -3,000 Descending FlightAware ADS-B
Sun 10:36:30 PM -15.3430 -48.7430 151° Southeast 434 499 30,200 -1,500 Descending FlightAware ADS-B
Sun 10:36:51 PM -15.3750 -48.7160 141° Southeast 417 480 29,800 -1,269 Descending FlightAware ADS-B
Sun 10:37:22 PM -15.4090 -48.6710 128° Southeast 400 460 29,100 -2,328 Descending FlightAware ADS-B
Sun 10:37:58 PM -15.4480 -48.6150 126° Southeast 386 444 27,200 -3,364 Descending FlightAware ADS-B
Sun 10:38:28 PM -15.4780 -48.5730 127° Southeast 379 436 25,400 -3,171 Descending FlightAware ADS-B
Sun 10:39:08 PM -15.5230 -48.5100 127° Southeast 379 436 23,500 -2,480 Descending FlightAware ADS-B
Sun 10:39:43 PM -15.5590 -48.4600 127° Southeast 374 430 22,300 -2,143 Descending FlightAware ADS-B
Sun 10:40:18 PM -15.5960 -48.4070 126° Southeast 370 426 21,000 -2,571 Descending FlightAware ADS-B
Sun 10:40:53 PM -15.6310 -48.3570 126° Southeast 380 437 19,300 -2,571 Descending FlightAware ADS-B
Sun 10:41:28 PM -15.6680 -48.3050 126° Southeast 376 433 18,000 -2,143 Descending FlightAware ADS-B
Sun 10:42:03 PM -15.7030 -48.2550 126° Southeast 371 427 16,800 -2,057 Descending FlightAware ADS-B
Sun 10:42:38 PM -15.7390 -48.2040 126° Southeast 364 419 15,600 -1,800 Descending FlightAware ADS-B
Sun 10:43:13 PM -15.7700 -48.1550 123° Southeast 351 404 14,700 -1,333 Descending FlightAware ADS-B
Sun 10:43:23 PM -15.7740 -48.1390 105° East 346 398 14,600 -1,077 Descending FlightAware ADS-B
Sun 10:43:52 PM -15.7640 -48.0920 78° East 330 380 14,000 -1,377 Descending FlightAware ADS-B
Sun 10:44:24 PM -15.7470 -48.0470 69° East 323 372 13,200 -938 Descending FlightAware ADS-B
Sun 10:44:56 PM -15.7300 -48.0020 69° East 296 341 13,000 -171 Descending FlightAware ADS-B
Sun 10:45:34 PM -15.7120 -47.9520 70° East 282 325 13,000  Level FlightAware ADS-B
Sun 10:46:11 PM -15.7010 -47.9040 77° East 280 322 13,000 -686 Level FlightAware ADS-B
Sun 10:46:44 PM -15.6900 -47.8610 75° East 282 325 12,200 -1,970 Descending FlightAware ADS-B
Sun 10:47:18 PM -15.6800 -47.8160 77° East 279 321 10,800 -2,333 Descending FlightAware ADS-B
Sun 10:47:38 PM -15.6880 -47.7920 109° East 281 323 10,100 -2,250 Descending FlightAware ADS-B
Sun 10:47:58 PM -15.7040 -47.7690 126° Southeast 282 325 9,300 -2,000 Descending FlightAware ADS-B
Sun 10:48:14 PM -15.7150 -47.7530 126° Southeast 279 321 8,900 -1,200 Descending FlightAware ADS-B
Sun 10:48:33 PM -15.7290 -47.7330 126° Southeast 262 302 8,600 -882 Descending FlightAware ADS-B
Sun 10:48:48 PM -15.7390 -47.7180 125° Southeast 252 290 8,400 -960 Descending FlightAware ADS-B
Sun 10:48:58 PM -15.7480 -47.7080 133° Southeast 245 282 8,200 -800 Descending FlightAware ADS-B
Sun 10:49:03 PM -15.7520 -47.7050 144° Southeast 243 280 8,200 -750 Level FlightAware ADS-B
Sun 10:49:14 PM -15.7610 -47.7020 162° South 239 275 8,000 -1,200 Descending FlightAware ADS-B
Sun 10:49:18 PM -15.7680 -47.7010 172° South 234 269 7,900 -750 Descending FlightAware ADS-B
Sun 10:49:38 PM -15.7860 -47.7060 195° South 218 251 7,700 -900 Descending FlightAware ADS-B
Sun 10:49:58 PM -15.8070 -47.7130 198° South 212 244 7,300 -1,200 Descending FlightAware ADS-B
Sun 10:50:18 PM -15.8260 -47.7180 194° South 211 243 6,900 -1,200 Descending FlightAware ADS-B
Sun 10:50:48 PM -15.8530 -47.7270 198° South 212 244 6,300 -1,200 Descending FlightAware ADS-B
Sun 10:50:58 PM -15.8620 -47.7320 208° Southwest 206 237 6,100 -800 Descending FlightAware ADS-B
Sun 10:51:03 PM -15.8650 -47.7360 232° Southwest 196 226 6,100 -600 Level FlightAware ADS-B
Sun 10:51:08 PM -15.8660 -47.7400 255° West 188 216 6,000 -800 Descending FlightAware ADS-B
Sun 10:51:18 PM -15.8680 -47.7480 255° West 177 204 5,900 -480 Descending FlightAware ADS-B
Sun 10:51:33 PM -15.8690 -47.7610 265° West 163 188 5,800 -514 Descending FlightAware ADS-B
Sun 10:51:53 PM -15.8700 -47.7750 266° West 151 174 5,600 -732 Descending FlightAware ADS-B
Sun 10:52:14 PM -15.8710 -47.7890 266° West 144 166 5,300 -750 Descending FlightAware ADS-B
Sun 10:52:33 PM -15.8720 -47.8020 265° West 138 159 5,100 -682 Descending FlightAware ADS-B
Sun 10:52:58 PM -15.8730 -47.8180 266° West 135 155 4,800 -686 Descending FlightAware ADS-B
Sun 10:53:08 PM -15.8730 -47.8260 270° West 135 155 4,700 -600 Descending FlightAware ADS-B
Sun 10:53:28 PM -15.8740 -47.8390 265° West 136 157 4,500 -667 Descending FlightAware ADS-B
Sun 10:53:53 PM -15.8750 -47.8550 266° West 137 158 4,200 -652 Descending FlightAware ADS-B
Sun 10:54:14 PM -15.8760 -47.8670 265° West 135 155 4,000 -686 Descending FlightAware ADS-B
Sun 10:54:28 PM -15.8770 -47.8750 263° West 136 157 3,800 -769 Descending FlightAware ADS-B
Sun 10:54:53 PM -15.8780 -47.8930 267° West 137 158 3,500 -652 Descending FlightAware ADS-B
Sun 10:55:14 PM -15.8790 -47.9080 266° West 142 163 3,300 -429 Descending FlightAware ADS-B
Sun 10:55:35 PM -15.8790 -47.9200 270° West 140 161 3,200 -122 Descending FlightAware ADS-B
Sun 10:56:03 PM -15.8800 -47.9360 266° West 140 161 3,200 32 Level FlightAware ADS-B
Sun 10:58:00 PM -15.8626 -47.9127 52° Northeast  Level Estimated
Sun 10:58:45 PM -15.8770 -47.9200 52° Northeast 3,300  Level FlightAware ADS-B

Login

Don't have an account? Register now (free) for customized features, flight alerts, and more!